sensor_id;sensor_type;location;lat;lon;timestamp;pressure;altitude;pressure_sealevel;temperature;humidity
60371;BME280;48550;40.588;49.684;2022-11-11T00:01:48;102936.94;;;12.69;100.00
60371;BME280;48550;40.588;49.684;2022-11-11T00:04:14;102935.28;;;12.68;100.00
60371;BME280;48550;40.588;49.684;2022-11-11T00:06:40;102943.84;;;12.57;100.00
60371;BME280;48550;40.588;49.684;2022-11-11T00:09:06;102936.25;;;12.46;100.00
60371;BME280;48550;40.588;49.684;2022-11-11T00:11:31;102936.25;;;12.46;100.00
60371;BME280;48550;40.588;49.684;2022-11-11T00:13:57;102933.94;;;12.43;100.00
60371;BME280;48550;40.588;49.684;2022-11-11T00:16:23;102942.78;;;12.36;100.00
60371;BME280;48550;40.588;49.684;2022-11-11T00:18:48;102939.66;;;12.33;100.00
60371;BME280;48550;40.588;49.684;2022-11-11T00:21:32;102947.34;;;12.36;100.00
60371;BME280;48550;40.588;49.684;2022-11-11T00:24:27;102942.16;;;12.34;100.00
60371;BME280;48550;40.588;49.684;2022-11-11T00:27:12;102945.34;;;12.23;100.00
60371;BME280;48550;40.588;49.684;2022-11-11T00:29:38;102940.16;;;12.22;100.00
60371;BME280;48550;40.588;49.684;2022-11-11T00:32:05;102954.72;;;12.27;100.00
60371;BME280;48550;40.588;49.684;2022-11-11T00:34:51;102950.53;;;12.25;100.00
60371;BME280;48550;40.588;49.684;2022-11-11T00:37:36;102952.38;;;12.24;100.00
60371;BME280;48550;40.588;49.684;2022-11-11T00:40:02;102949.25;;;12.21;100.00
60371;BME280;48550;40.588;49.684;2022-11-11T00:42:28;102949.25;;;12.21;100.00
60371;BME280;48550;40.588;49.684;2022-11-11T00:44:54;102951.94;;;12.21;100.00
60371;BME280;48550;40.588;49.684;2022-11-11T00:47:19;102951.09;;;12.20;100.00
60371;BME280;48550;40.588;49.684;2022-11-11T00:50:07;102947.38;;;12.21;100.00
60371;BME280;48550;40.588;49.684;2022-11-11T00:52:53;102947.56;;;12.20;100.00
60371;BME280;48550;40.588;49.684;2022-11-11T00:55:18;102954.16;;;12.17;100.00
60371;BME280;48550;40.588;49.684;2022-11-11T00:57:44;102942.56;;;12.17;100.00
60371;BME280;48550;40.588;49.684;2022-11-11T01:00:10;102952.88;;;12.13;100.00
60371;BME280;48550;40.588;49.684;2022-11-11T01:02:36;102955.19;;;12.16;100.00
60371;BME280;48550;40.588;49.684;2022-11-11T01:05:02;102955.56;;;12.13;100.00
60371;BME280;48550;40.588;49.684;2022-11-11T01:07:28;102958.91;;;12.15;100.00
60371;BME280;48550;40.588;49.684;2022-11-11T01:09:53;102957.06;;;12.16;100.00
60371;BME280;48550;40.588;49.684;2022-11-11T01:12:19;102962.81;;;12.13;100.00
60371;BME280;48550;40.588;49.684;2022-11-11T01:14:45;102956.78;;;12.11;100.00
60371;BME280;48550;40.588;49.684;2022-11-11T01:17:11;102963.66;;;12.13;100.00
60371;BME280;48550;40.588;49.684;2022-11-11T01:19:36;102957.16;;;12.07;100.00
60371;BME280;48550;40.588;49.684;2022-11-11T01:22:02;102967.09;;;12.07;100.00
60371;BME280;48550;40.588;49.684;2022-11-11T01:24:28;102959.66;;;12.09;100.00
60371;BME280;48550;40.588;49.684;2022-11-11T01:26:53;102955.75;;;12.12;100.00
60371;BME280;48550;40.588;49.684;2022-11-11T01:29:19;102966.25;;;12.06;100.00
60371;BME280;48550;40.588;49.684;2022-11-11T01:31:45;102959.59;;;12.02;100.00
60371;BME280;48550;40.588;49.684;2022-11-11T01:34:10;102955.41;;;12.00;100.00
60371;BME280;48550;40.588;49.684;2022-11-11T01:36:36;102962.19;;;11.96;100.00
60371;BME280;48550;40.588;49.684;2022-11-11T01:39:02;102967.56;;;11.96;100.00
60371;BME280;48550;40.588;49.684;2022-11-11T01:41:30;102970.53;;;12.01;100.00
60371;BME280;48550;40.588;49.684;2022-11-11T01:46:47;102968.88;;;12.00;100.00
60371;BME280;48550;40.588;49.684;2022-11-11T01:49:36;102982.13;;;12.01;100.00
60371;BME280;48550;40.588;49.684;2022-11-11T01:52:29;102976.09;;;12.14;100.00
60371;BME280;48550;40.588;49.684;2022-11-11T01:54:59;102969.56;;;12.23;100.00
60371;BME280;48550;40.588;49.684;2022-11-11T01:57:33;102974.88;;;12.17;100.00
60371;BME280;48550;40.588;49.684;2022-11-11T02:00:05;102982.69;;;12.12;100.00
60371;BME280;48550;40.588;49.684;2022-11-11T02:02:33;102976.47;;;12.11;100.00
60371;BME280;48550;40.588;49.684;2022-11-11T02:05:03;102976.84;;;12.08;100.00
60371;BME280;48550;40.588;49.684;2022-11-11T02:07:48;102981.75;;;12.04;100.00
60371;BME280;48550;40.588;49.684;2022-11-11T02:10:22;102981.19;;;12.09;100.00
60371;BME280;48550;40.588;49.684;2022-11-11T02:12:48;102978.13;;;12.12;100.00
60371;BME280;48550;40.588;49.684;2022-11-11T02:15:33;102977.56;;;12.17;100.00
60371;BME280;48550;40.588;49.684;2022-11-11T02:17:59;102979.63;;;12.15;100.00
60371;BME280;48550;40.588;49.684;2022-11-11T02:20:26;102981.00;;;12.11;100.00
60371;BME280;48550;40.588;49.684;2022-11-11T02:25:34;102976.84;;;12.08;100.00
60371;BME280;48550;40.588;49.684;2022-11-11T02:28:04;102974.41;;;12.13;100.00
60371;BME280;48550;40.588;49.684;2022-11-11T02:30:31;102976.84;;;12.08;100.00
60371;BME280;48550;40.588;49.684;2022-11-11T02:32:57;102974.97;;;12.08;100.00
60371;BME280;48550;40.588;49.684;2022-11-11T02:35:32;102981.66;;;11.98;100.00
60371;BME280;48550;40.588;49.684;2022-11-11T02:37:59;102978.97;;;11.98;100.00
60371;BME280;48550;40.588;49.684;2022-11-11T02:40:42;102989.38;;;12.01;100.00
60371;BME280;48550;40.588;49.684;2022-11-11T02:43:29;102988.34;;;12.02;100.00
60371;BME280;48550;40.588;49.684;2022-11-11T02:45:55;102977.59;;;12.02;100.00
60371;BME280;48550;40.588;49.684;2022-11-11T02:48:21;102986.50;;;12.02;100.00
60371;BME280;48550;40.588;49.684;2022-11-11T02:50:47;102991.22;;;12.00;100.00
60371;BME280;48550;40.588;49.684;2022-11-11T02:53:13;102991.22;;;12.00;100.00
60371;BME280;48550;40.588;49.684;2022-11-11T02:55:38;102983.34;;;11.99;100.00
60371;BME280;48550;40.588;49.684;2022-11-11T02:58:04;102993.28;;;11.98;100.00
60371;BME280;48550;40.588;49.684;2022-11-11T03:00:30;103001.53;;;11.97;100.00
60371;BME280;48550;40.588;49.684;2022-11-11T03:02:55;102995.03;;;11.91;100.00
60371;BME280;48550;40.588;49.684;2022-11-11T03:05:21;102997.00;;;11.97;100.00
60371;BME280;48550;40.588;49.684;2022-11-11T03:07:47;103006.81;;;12.05;100.00
60371;BME280;48550;40.588;49.684;2022-11-11T03:10:13;103008.66;;;12.19;100.00
60371;BME280;48550;40.588;49.684;2022-11-11T03:12:39;102999.56;;;12.20;100.00
60371;BME280;48550;40.588;49.684;2022-11-11T03:15:05;103005.69;;;12.14;100.00
60371;BME280;48550;40.588;49.684;2022-11-11T03:17:31;102998.00;;;12.11;100.00
60371;BME280;48550;40.588;49.684;2022-11-11T03:20:15;103002.47;;;12.04;100.00
60371;BME280;48550;40.588;49.684;2022-11-11T03:23:04;103001.06;;;12.08;100.00
60371;BME280;48550;40.588;49.684;2022-11-11T03:25:31;102998.19;;;12.09;100.00
60371;BME280;48550;40.588;49.684;2022-11-11T03:28:04;102998.38;;;12.08;100.00
60371;BME280;48550;40.588;49.684;2022-11-11T03:30:29;103002.53;;;12.11;100.00
60371;BME280;48550;40.588;49.684;2022-11-11T03:32:55;103000.88;;;12.09;100.00
60371;BME280;48550;40.588;49.684;2022-11-11T03:35:21;103003.56;;;12.09;100.00
60371;BME280;48550;40.588;49.684;2022-11-11T03:37:46;103016.38;;;12.07;100.00
60371;BME280;48550;40.588;49.684;2022-11-11T03:40:31;103014.53;;;12.08;100.00
60371;BME280;48550;40.588;49.684;2022-11-11T03:42:56;103009.13;;;12.08;100.00
60371;BME280;48550;40.588;49.684;2022-11-11T03:45:22;103017.66;;;12.12;100.00
60371;BME280;48550;40.588;49.684;2022-11-11T03:47:48;103013.78;;;12.14;100.00
60371;BME280;48550;40.588;49.684;2022-11-11T03:50:13;103009.41;;;12.13;100.00
60371;BME280;48550;40.588;49.684;2022-11-11T03:52:42;103014.78;;;12.13;100.00
60371;BME280;48550;40.588;49.684;2022-11-11T03:55:08;103025.56;;;12.13;100.00
60371;BME280;48550;40.588;49.684;2022-11-11T03:57:41;103020.44;;;12.18;100.00
60371;BME280;48550;40.588;49.684;2022-11-11T04:00:08;103017.19;;;12.23;100.00
60371;BME280;48550;40.588;49.684;2022-11-11T04:02:34;103019.25;;;12.21;100.00
60371;BME280;48550;40.588;49.684;2022-11-11T04:05:18;103025.09;;;12.24;100.00
60371;BME280;48550;40.588;49.684;2022-11-11T04:08:02;103028.63;;;12.25;100.00
60371;BME280;48550;40.588;49.684;2022-11-11T04:10:46;103028.25;;;12.28;100.00
60371;BME280;48550;40.588;49.684;2022-11-11T04:13:12;103029.06;;;12.28;100.00
60371;BME280;48550;40.588;49.684;2022-11-11T04:15:56;103042.91;;;12.25;100.00
60371;BME280;48550;40.588;49.684;2022-11-11T04:18:31;103039.66;;;12.30;100.00
60371;BME280;48550;40.588;49.684;2022-11-11T04:21:16;103034.53;;;12.35;100.00
60371;BME280;48550;40.588;49.684;2022-11-11T04:24:00;103027.94;;;12.37;100.00
60371;BME280;48550;40.588;49.684;2022-11-11T04:26:26;103031.09;;;12.41;100.00
60371;BME280;48550;40.588;49.684;2022-11-11T04:28:52;103031.94;;;12.41;100.00
60371;BME280;48550;40.588;49.684;2022-11-11T04:31:36;103042.97;;;12.47;100.00
60371;BME280;48550;40.588;49.684;2022-11-11T04:34:22;103039.72;;;12.51;100.00
60371;BME280;48550;40.588;49.684;2022-11-11T04:36:48;103044.66;;;12.48;100.00
60371;BME280;48550;40.588;49.684;2022-11-11T04:39:13;103054.78;;;12.46;100.00
60371;BME280;48550;40.588;49.684;2022-11-11T04:41:57;103055.03;;;12.51;100.00
60371;BME280;48550;40.588;49.684;2022-11-11T04:44:23;103063.13;;;12.51;100.00
60371;BME280;48550;40.588;49.684;2022-11-11T04:47:07;103059.97;;;12.47;100.00
60371;BME280;48550;40.588;49.684;2022-11-11T04:49:33;103077.16;;;12.46;100.00
60371;BME280;48550;40.588;49.684;2022-11-11T04:51:59;103065.72;;;12.44;100.00
60371;BME280;48550;40.588;49.684;2022-11-11T04:54:43;103070.75;;;12.47;100.00
60371;BME280;48550;40.588;49.684;2022-11-11T04:57:27;103062.75;;;12.54;100.00
60371;BME280;48550;40.588;49.684;2022-11-11T04:59:52;103073.06;;;12.65;100.00
60371;BME280;48550;40.588;49.684;2022-11-11T05:02:18;103075.84;;;12.71;100.00
60371;BME280;48550;40.588;49.684;2022-11-11T05:05:02;103079.75;;;12.69;100.00
60371;BME280;48550;40.588;49.684;2022-11-11T05:07:28;103087.19;;;12.67;100.00
60371;BME280;48550;40.588;49.684;2022-11-11T05:10:12;103084.03;;;12.63;100.00
60371;BME280;48550;40.588;49.684;2022-11-11T05:12:38;103085.69;;;12.64;100.00
60371;BME280;48550;40.588;49.684;2022-11-11T05:15:03;103088.41;;;12.64;100.00
60371;BME280;48550;40.588;49.684;2022-11-11T05:17:48;103087.91;;;12.76;100.00
60371;BME280;48550;40.588;49.684;2022-11-11T05:20:32;103088.44;;;12.86;100.00
60371;BME280;48550;40.588;49.684;2022-11-11T05:23:15;103094.09;;;12.91;100.00
60371;BME280;48550;40.588;49.684;2022-11-11T05:25:41;103089.59;;;12.98;100.00
60371;BME280;48550;40.588;49.684;2022-11-11T05:28:07;103082.81;;;13.02;100.00
60371;BME280;48550;40.588;49.684;2022-11-11T05:30:32;103089.16;;;12.94;100.00
60371;BME280;48550;40.588;49.684;2022-11-11T05:33:00;103092.75;;;13.01;100.00
60371;BME280;48550;40.588;49.684;2022-11-11T05:35:27;103089.81;;;12.96;100.00
60371;BME280;48550;40.588;49.684;2022-11-11T05:37:52;103089.69;;;13.04;100.00
60371;BME280;48550;40.588;49.684;2022-11-11T05:40:36;103088.34;;;12.79;100.00
60371;BME280;48550;40.588;49.684;2022-11-11T05:43:02;103091.50;;;12.83;100.00
60371;BME280;48550;40.588;49.684;2022-11-11T05:45:28;103089.34;;;12.93;100.00
60371;BME280;48550;40.588;49.684;2022-11-11T05:47:53;103093.59;;;13.02;100.00
60371;BME280;48550;40.588;49.684;2022-11-11T05:50:19;103089.41;;;12.99;100.00
60371;BME280;48550;40.588;49.684;2022-11-11T05:52:48;103089.34;;;12.93;100.00
60371;BME280;48550;40.588;49.684;2022-11-11T05:55:15;103093.47;;;12.74;100.00
60371;BME280;48550;40.588;49.684;2022-11-11T05:57:41;103082.31;;;12.77;100.00
60371;BME280;48550;40.588;49.684;2022-11-11T06:00:07;103083.91;;;12.57;100.00
60371;BME280;48550;40.588;49.684;2022-11-11T06:02:33;103087.81;;;12.69;100.00
60371;BME280;48550;40.588;49.684;2022-11-11T06:04:59;103084.09;;;12.70;100.00
60371;BME280;48550;40.588;49.684;2022-11-11T06:07:25;103078.34;;;12.73;100.00
60371;BME280;48550;40.588;49.684;2022-11-11T06:09:50;103086.16;;;12.68;100.00
60371;BME280;48550;40.588;49.684;2022-11-11T06:12:16;103080.53;;;12.84;100.00
60371;BME280;48550;40.588;49.684;2022-11-11T06:14:42;103084.00;;;12.78;100.00
60371;BME280;48550;40.588;49.684;2022-11-11T06:17:07;103075.78;;;12.86;100.00
60371;BME280;48550;40.588;49.684;2022-11-11T06:19:33;103075.75;;;13.01;100.00
60371;BME280;48550;40.588;49.684;2022-11-11T06:21:59;103077.22;;;13.03;100.00
60371;BME280;48550;40.588;49.684;2022-11-11T06:24:26;103079.59;;;13.13;100.00
60371;BME280;48550;40.588;49.684;2022-11-11T06:26:53;103086.31;;;13.17;100.00
60371;BME280;48550;40.588;49.684;2022-11-11T06:29:19;103084.34;;;13.11;100.00
60371;BME280;48550;40.588;49.684;2022-11-11T06:31:45;103072.59;;;12.97;100.00
60371;BME280;48550;40.588;49.684;2022-11-11T06:34:11;103081.47;;;13.13;100.00
60371;BME280;48550;40.588;49.684;2022-11-11T06:36:36;103075.44;;;13.11;100.00
60371;BME280;48550;40.588;49.684;2022-11-11T06:39:02;103077.66;;;13.22;100.00
60371;BME280;48550;40.588;49.684;2022-11-11T06:41:28;103090.69;;;13.18;100.00
60371;BME280;48550;40.588;49.684;2022-11-11T06:43:54;103087.22;;;13.24;100.00
60371;BME280;48550;40.588;49.684;2022-11-11T06:46:22;103089.16;;;13.16;100.00
60371;BME280;48550;40.588;49.684;2022-11-11T06:48:49;103090.19;;;13.15;100.00
60371;BME280;48550;40.588;49.684;2022-11-11T06:51:15;103087.22;;;13.24;100.00
60371;BME280;48550;40.588;49.684;2022-11-11T06:53:41;103090.31;;;13.07;100.00
60371;BME280;48550;40.588;49.684;2022-11-11T06:56:08;103092.69;;;12.95;100.00
60371;BME280;48550;40.588;49.684;2022-11-11T06:58:34;103076.91;;;12.92;100.00
60371;BME280;48550;40.588;49.684;2022-11-11T07:01:03;103077.97;;;12.76;100.00
60371;BME280;48550;40.588;49.684;2022-11-11T07:03:29;103077.47;;;12.87;100.00
60371;BME280;48550;40.588;49.684;2022-11-11T07:05:55;103079.47;;;13.00;100.00
60371;BME280;48550;40.588;49.684;2022-11-11T07:08:21;103078.56;;;13.14;100.00
60371;BME280;48550;40.588;49.684;2022-11-11T07:10:47;103078.03;;;13.19;100.00
60371;BME280;48550;40.588;49.684;2022-11-11T07:13:14;103076.59;;;13.01;100.00
60371;BME280;48550;40.588;49.684;2022-11-11T07:15:42;103067.34;;;13.11;100.00
60371;BME280;48550;40.588;49.684;2022-11-11T07:18:08;103073.81;;;13.16;100.00
60371;BME280;48550;40.588;49.684;2022-11-11T07:20:35;103070.19;;;13.24;100.00
60371;BME280;48550;40.588;49.684;2022-11-11T07:23:03;103068.72;;;13.21;100.00
60371;BME280;48550;40.588;49.684;2022-11-11T07:25:29;103073.97;;;13.29;100.00
60371;BME280;48550;40.588;49.684;2022-11-11T07:27:54;103069.31;;;13.17;100.00
60371;BME280;48550;40.588;49.684;2022-11-11T07:30:20;103070.84;;;13.26;100.00
60371;BME280;48550;40.588;49.684;2022-11-11T07:32:47;103066.88;;;13.43;100.00
60371;BME280;48550;40.588;49.684;2022-11-11T07:35:14;103064.28;;;13.56;100.00
60371;BME280;48550;40.588;49.684;2022-11-11T07:37:41;103066.94;;;13.78;100.00
60371;BME280;48550;40.588;49.684;2022-11-11T07:40:09;103069.28;;;13.59;100.00
60371;BME280;48550;40.588;49.684;2022-11-11T07:42:36;103066.50;;;13.74;100.00
60371;BME280;48550;40.588;49.684;2022-11-11T07:45:02;103066.88;;;13.71;100.00
60371;BME280;48550;40.588;49.684;2022-11-11T07:47:28;103073.50;;;13.68;100.00
60371;BME280;48550;40.588;49.684;2022-11-11T07:49:54;103069.63;;;13.78;100.00
60371;BME280;48550;40.588;49.684;2022-11-11T07:52:20;103061.28;;;13.45;100.00
60371;BME280;48550;40.588;49.684;2022-11-11T07:54:48;103063.41;;;13.49;100.00
60371;BME280;48550;40.588;49.684;2022-11-11T07:57:14;103058.41;;;13.46;100.00
60371;BME280;48550;40.588;49.684;2022-11-11T07:59:40;103060.25;;;13.46;100.00
60371;BME280;48550;40.588;49.684;2022-11-11T08:02:15;103062.69;;;13.41;100.00
60371;BME280;48550;40.588;49.684;2022-11-11T08:04:41;103059.63;;;13.08;100.00
60371;BME280;48550;40.588;49.684;2022-11-11T08:07:07;103053.03;;;13.10;100.00
60371;BME280;48550;40.588;49.684;2022-11-11T08:09:33;103054.88;;;13.10;100.00
60371;BME280;48550;40.588;49.684;2022-11-11T08:11:58;103053.34;;;13.00;100.00
60371;BME280;48550;40.588;49.684;2022-11-11T08:14:42;103050.97;;;13.12;100.00
60371;BME280;48550;40.588;49.684;2022-11-11T08:17:08;103045.25;;;13.00;100.00
60371;BME280;48550;40.588;49.684;2022-11-11T08:19:34;103043.00;;;13.04;100.00
60371;BME280;48550;40.588;49.684;2022-11-11T08:21:59;103037.94;;;13.16;100.00
60371;BME280;48550;40.588;49.684;2022-11-11T08:24:25;103034.94;;;13.25;100.00
60371;BME280;48550;40.588;49.684;2022-11-11T08:26:51;103044.56;;;13.34;100.00
60371;BME280;48550;40.588;49.684;2022-11-11T08:29:18;103034.81;;;13.33;100.00
60371;BME280;48550;40.588;49.684;2022-11-11T08:31:44;103034.38;;;13.30;100.00
60371;BME280;48550;40.588;49.684;2022-11-11T08:34:10;103028.13;;;13.29;100.00
60371;BME280;48550;40.588;49.684;2022-11-11T08:36:36;103036.28;;;13.36;100.00
60371;BME280;48550;40.588;49.684;2022-11-11T08:39:02;103037.19;;;13.43;100.00
60371;BME280;48550;40.588;49.684;2022-11-11T08:41:28;103031.84;;;13.28;100.00
60371;BME280;48550;40.588;49.684;2022-11-11T08:43:54;103032.13;;;13.33;100.00
60371;BME280;48550;40.588;49.684;2022-11-11T08:46:21;103031.91;;;13.56;100.00
60371;BME280;48550;40.588;49.684;2022-11-11T08:48:47;103020.69;;;13.53;100.00
60371;BME280;48550;40.588;49.684;2022-11-11T08:51:13;103021.94;;;13.57;100.00
60371;BME280;48550;40.588;49.684;2022-11-11T08:53:39;103016.00;;;13.40;100.00
60371;BME280;48550;40.588;49.684;2022-11-11T08:56:05;103019.34;;;13.42;100.00
60371;BME280;48550;40.588;49.684;2022-11-11T08:58:31;103017.72;;;13.48;100.00
60371;BME280;48550;40.588;49.684;2022-11-11T09:00:57;103016.59;;;13.63;100.00
60371;BME280;48550;40.588;49.684;2022-11-11T09:03:23;103010.66;;;13.47;100.00
60371;BME280;48550;40.588;49.684;2022-11-11T09:05:49;103001.19;;;13.57;100.00
60371;BME280;48550;40.588;49.684;2022-11-11T09:08:14;103000.94;;;13.80;100.00
60371;BME280;48550;40.588;49.684;2022-11-11T09:10:40;102994.22;;;13.70;100.00
60371;BME280;48550;40.588;49.684;2022-11-11T09:13:06;102998.81;;;13.41;100.00
60371;BME280;48550;40.588;49.684;2022-11-11T09:15:33;102996.19;;;13.54;100.00
60371;BME280;48550;40.588;49.684;2022-11-11T09:17:59;102992.88;;;13.52;100.00
60371;BME280;48550;40.588;49.684;2022-11-11T09:20:26;102991.25;;;13.36;100.00
60371;BME280;48550;40.588;49.684;2022-11-11T09:22:52;102996.16;;;13.26;100.00
60371;BME280;48550;40.588;49.684;2022-11-11T09:25:18;102990.81;;;13.33;100.00
60371;BME280;48550;40.588;49.684;2022-11-11T09:27:53;102982.81;;;13.18;100.00
60371;BME280;48550;40.588;49.684;2022-11-11T09:30:19;102982.53;;;13.13;100.00
60371;BME280;48550;40.588;49.684;2022-11-11T09:32:45;102983.38;;;13.14;100.00
60371;BME280;48550;40.588;49.684;2022-11-11T09:35:11;102982.44;;;13.21;100.00
60371;BME280;48550;40.588;49.684;2022-11-11T09:37:36;102979.53;;;13.23;100.00
60371;BME280;48550;40.588;49.684;2022-11-11T09:40:02;102979.41;;;13.31;100.00
60371;BME280;48550;40.588;49.684;2022-11-11T09:42:40;102983.50;;;13.27;100.00
60371;BME280;48550;40.588;49.684;2022-11-11T09:45:52;102979.84;;;13.13;100.00
60371;BME280;48550;40.588;49.684;2022-11-11T09:50:57;102980.03;;;13.33;100.00
60371;BME280;48550;40.588;49.684;2022-11-11T09:53:34;102978.50;;;13.24;100.00
60371;BME280;48550;40.588;49.684;2022-11-11T09:56:17;102965.72;;;13.32;100.00
60371;BME280;48550;40.588;49.684;2022-11-11T09:58:55;102973.22;;;13.37;100.00
60371;BME280;48550;40.588;49.684;2022-11-11T10:01:28;102968.66;;;13.38;100.00
60371;BME280;48550;40.588;49.684;2022-11-11T10:04:04;102959.38;;;13.40;100.00
60371;BME280;48550;40.588;49.684;2022-11-11T10:06:36;102965.28;;;13.57;100.00
60371;BME280;48550;40.588;49.684;2022-11-11T10:09:15;102958.28;;;13.62;100.00
60371;BME280;48550;40.588;49.684;2022-11-11T10:14:15;102960.56;;;13.65;100.00
60371;BME280;48550;40.588;49.684;2022-11-11T10:21:52;102952.38;;;13.87;100.00
60371;BME280;48550;40.588;49.684;2022-11-11T10:24:29;102951.09;;;13.76;100.00
60371;BME280;48550;40.588;49.684;2022-11-11T10:26:58;102954.41;;;13.78;100.00
60371;BME280;48550;40.588;49.684;2022-11-11T10:29:30;102963.50;;;13.71;100.00
60371;BME280;48550;40.588;49.684;2022-11-11T10:32:11;102946.09;;;13.73;100.00
60371;BME280;48550;40.588;49.684;2022-11-11T10:34:40;102952.16;;;13.82;100.00
60371;BME280;48550;40.588;49.684;2022-11-11T10:37:30;102951.97;;;13.49;100.00
60371;BME280;48550;40.588;49.684;2022-11-11T10:40:26;102947.31;;;13.71;100.00
60371;BME280;48550;40.588;49.684;2022-11-11T10:42:53;102950.41;;;13.67;100.00
60371;BME280;48550;40.588;49.684;2022-11-11T10:45:28;102952.13;;;13.75;100.00
60371;BME280;48550;40.588;49.684;2022-11-11T10:47:58;102952.03;;;13.62;100.00
60371;BME280;48550;40.588;49.684;2022-11-11T10:53:07;102955.97;;;13.59;100.00
60371;BME280;48550;40.588;49.684;2022-11-11T10:58:37;102961.69;;;13.78;100.00
60371;BME280;48550;40.588;49.684;2022-11-11T11:01:10;102958.28;;;13.62;100.00
60371;BME280;48550;40.588;49.684;2022-11-11T11:04:14;102964.09;;;13.66;100.00
60371;BME280;48550;40.588;49.684;2022-11-11T11:06:43;102968.03;;;13.63;100.00
60371;BME280;48550;40.588;49.684;2022-11-11T11:09:28;102968.72;;;13.44;100.00
60371;BME280;48550;40.588;49.684;2022-11-11T11:12:00;102971.03;;;13.47;100.00
60371;BME280;48550;40.588;49.684;2022-11-11T11:14:36;102976.88;;;13.51;100.00
60371;BME280;48550;40.588;49.684;2022-11-11T11:17:12;102964.03;;;13.53;100.00
60371;BME280;48550;40.588;49.684;2022-11-11T11:19:39;102969.03;;;13.56;100.00
60371;BME280;48550;40.588;49.684;2022-11-11T11:22:04;102979.31;;;13.46;100.00
60371;BME280;48550;40.588;49.684;2022-11-11T11:24:32;102972.66;;;13.42;100.00
60371;BME280;48550;40.588;49.684;2022-11-11T11:27:01;102966.03;;;13.44;100.00
60371;BME280;48550;40.588;49.684;2022-11-11T11:29:37;102974.63;;;13.33;100.00
60371;BME280;48550;40.588;49.684;2022-11-11T11:32:29;102970.72;;;13.35;100.00
60371;BME280;48550;40.588;49.684;2022-11-11T11:34:56;102968.16;;;13.27;100.00
60371;BME280;48550;40.588;49.684;2022-11-11T11:37:24;102969.63;;;13.30;100.00
60371;BME280;48550;40.588;49.684;2022-11-11T11:40:05;102963.59;;;13.28;100.00
60371;BME280;48550;40.588;49.684;2022-11-11T11:42:37;102967.66;;;13.39;100.00
60371;BME280;48550;40.588;49.684;2022-11-11T11:45:28;102977.84;;;13.43;100.00
60371;BME280;48550;40.588;49.684;2022-11-11T11:55:41;102989.91;;;13.47;100.00
60371;BME280;48550;40.588;49.684;2022-11-11T12:01:02;102982.47;;;13.49;100.00
60371;BME280;48550;40.588;49.684;2022-11-11T12:03:56;102988.69;;;13.50;100.00
60371;BME280;48550;40.588;49.684;2022-11-11T12:06:35;102992.19;;;13.44;100.00
60371;BME280;48550;40.588;49.684;2022-11-11T12:12:50;102992.88;;;13.31;100.00
60371;BME280;48550;40.588;49.684;2022-11-11T12:14:49;102994.31;;;13.27;100.00
60371;BME280;48550;40.588;49.684;2022-11-11T12:20:35;102990.31;;;13.23;100.00
60371;BME280;48550;40.588;49.684;2022-11-11T12:25:50;102994.69;;;13.02;100.00
60371;BME280;48550;40.588;49.684;2022-11-11T12:28:22;102989.28;;;13.02;100.00
60371;BME280;48550;40.588;49.684;2022-11-11T12:45:16;102991.22;;;12.87;100.00
60371;BME280;48550;40.588;49.684;2022-11-11T12:53:39;102988.06;;;12.84;100.00
60371;BME280;48550;40.588;49.684;2022-11-11T12:56:23;102993.41;;;12.77;100.00
60371;BME280;48550;40.588;49.684;2022-11-11T12:58:58;102993.34;;;12.70;100.00
60371;BME280;48550;40.588;49.684;2022-11-11T13:10:12;102988.88;;;12.63;100.00
60371;BME280;48550;40.588;49.684;2022-11-11T13:15:26;102997.13;;;12.61;100.00
60371;BME280;48550;40.588;49.684;2022-11-11T13:17:52;102996.59;;;12.66;100.00
60371;BME280;48550;40.588;49.684;2022-11-11T13:22:54;102999.50;;;12.64;100.00
60371;BME280;48550;40.588;49.684;2022-11-11T13:25:22;103003.56;;;12.60;100.00
60371;BME280;48550;40.588;49.684;2022-11-11T13:28:02;103007.09;;;12.61;100.00
60371;BME280;48550;40.588;49.684;2022-11-11T13:33:13;102999.69;;;12.48;100.00
60371;BME280;48550;40.588;49.684;2022-11-11T13:35:53;103003.41;;;12.47;100.00
60371;BME280;48550;40.588;49.684;2022-11-11T13:38:44;103001.16;;;12.51;100.00
60371;BME280;48550;40.588;49.684;2022-11-11T13:41:11;103008.41;;;12.50;100.00
60371;BME280;48550;40.588;49.684;2022-11-11T13:43:46;103003.66;;;12.52;100.00
60371;BME280;48550;40.588;49.684;2022-11-11T13:46:45;103006.38;;;12.52;100.00
60371;BME280;48550;40.588;49.684;2022-11-11T13:49:27;103006.19;;;12.54;100.00
60371;BME280;48550;40.588;49.684;2022-11-11T13:52:04;103012.13;;;12.49;100.00
60371;BME280;48550;40.588;49.684;2022-11-11T13:54:41;103001.75;;;12.46;100.00
60371;BME280;48550;40.588;49.684;2022-11-11T13:59:43;103012.06;;;12.43;100.00
60371;BME280;48550;40.588;49.684;2022-11-11T14:12:51;103019.50;;;12.40;100.00
60371;BME280;48550;40.588;49.684;2022-11-11T14:18:00;103008.53;;;12.42;100.00
60371;BME280;48550;40.588;49.684;2022-11-11T14:25:46;103021.72;;;12.37;100.00
60371;BME280;48550;40.588;49.684;2022-11-11T14:30:44;103021.09;;;12.35;100.00